sensor_id;sensor_type;location;lat;lon;timestamp;temperature;humidity
56268;DHT22;42175;46.930;9.532;2023-04-03T00:01:06;22.60;39.00
56268;DHT22;42175;46.930;9.532;2023-04-03T00:03:32;22.50;38.90
56268;DHT22;42175;46.930;9.532;2023-04-03T00:05:57;22.60;39.00
56268;DHT22;42175;46.930;9.532;2023-04-03T00:08:23;22.60;39.00
56268;DHT22;42175;46.930;9.532;2023-04-03T00:10:49;22.50;38.90
56268;DHT22;42175;46.930;9.532;2023-04-03T00:13:15;22.50;38.90
56268;DHT22;42175;46.930;9.532;2023-04-03T00:15:41;22.60;39.00
56268;DHT22;42175;46.930;9.532;2023-04-03T00:18:07;22.50;39.00
56268;DHT22;42175;46.930;9.532;2023-04-03T00:20:33;22.60;39.10
56268;DHT22;42175;46.930;9.532;2023-04-03T00:23:00;22.50;39.00
56268;DHT22;42175;46.930;9.532;2023-04-03T00:25:27;22.60;39.10
56268;DHT22;42175;46.930;9.532;2023-04-03T00:27:53;22.50;39.00
56268;DHT22;42175;46.930;9.532;2023-04-03T00:30:21;22.60;39.00
56268;DHT22;42175;46.930;9.532;2023-04-03T00:32:51;22.50;38.90
56268;DHT22;42175;46.930;9.532;2023-04-03T00:35:18;22.60;38.90
56268;DHT22;42175;46.930;9.532;2023-04-03T00:37:45;22.50;38.80
56268;DHT22;42175;46.930;9.532;2023-04-03T00:40:11;22.60;38.90
56268;DHT22;42175;46.930;9.532;2023-04-03T00:42:38;22.60;38.90
56268;DHT22;42175;46.930;9.532;2023-04-03T00:47:31;22.60;38.80
56268;DHT22;42175;46.930;9.532;2023-04-03T00:49:57;22.60;38.80
56268;DHT22;42175;46.930;9.532;2023-04-03T00:52:27;22.50;38.70
56268;DHT22;42175;46.930;9.532;2023-04-03T00:54:58;22.50;38.70
56268;DHT22;42175;46.930;9.532;2023-04-03T00:57:26;22.50;38.60
56268;DHT22;42175;46.930;9.532;2023-04-03T00:59:57;22.60;38.50
56268;DHT22;42175;46.930;9.532;2023-04-03T01:02:24;22.60;38.50
56268;DHT22;42175;46.930;9.532;2023-04-03T01:04:51;22.60;38.50
56268;DHT22;42175;46.930;9.532;2023-04-03T01:07:21;22.60;38.50
56268;DHT22;42175;46.930;9.532;2023-04-03T01:09:49;22.50;38.40
56268;DHT22;42175;46.930;9.532;2023-04-03T01:14:48;22.50;38.40
56268;DHT22;42175;46.930;9.532;2023-04-03T01:17:53;22.60;38.40
56268;DHT22;42175;46.930;9.532;2023-04-03T01:20:50;22.60;38.40
56268;DHT22;42175;46.930;9.532;2023-04-03T01:26:14;22.50;38.20
56268;DHT22;42175;46.930;9.532;2023-04-03T01:28:40;22.50;38.10
56268;DHT22;42175;46.930;9.532;2023-04-03T01:33:41;22.50;38.20
56268;DHT22;42175;46.930;9.532;2023-04-03T01:36:08;22.50;38.40
56268;DHT22;42175;46.930;9.532;2023-04-03T01:38:34;22.50;38.40
56268;DHT22;42175;46.930;9.532;2023-04-03T01:40:59;22.50;38.30
56268;DHT22;42175;46.930;9.532;2023-04-03T01:43:25;22.50;38.40
56268;DHT22;42175;46.930;9.532;2023-04-03T01:45:51;22.50;38.30
56268;DHT22;42175;46.930;9.532;2023-04-03T01:48:18;22.50;38.40
56268;DHT22;42175;46.930;9.532;2023-04-03T01:50:44;22.50;38.40
56268;DHT22;42175;46.930;9.532;2023-04-03T01:53:09;22.50;38.50
56268;DHT22;42175;46.930;9.532;2023-04-03T01:55:35;22.50;38.40
56268;DHT22;42175;46.930;9.532;2023-04-03T01:58:01;22.60;38.40
56268;DHT22;42175;46.930;9.532;2023-04-03T02:00:26;22.50;38.30
56268;DHT22;42175;46.930;9.532;2023-04-03T02:02:52;22.60;38.40
56268;DHT22;42175;46.930;9.532;2023-04-03T02:05:18;22.50;38.30
56268;DHT22;42175;46.930;9.532;2023-04-03T02:07:44;22.50;38.30
56268;DHT22;42175;46.930;9.532;2023-04-03T02:10:10;22.60;38.40
56268;DHT22;42175;46.930;9.532;2023-04-03T02:12:35;22.60;38.30
56268;DHT22;42175;46.930;9.532;2023-04-03T02:15:01;22.50;38.30
56268;DHT22;42175;46.930;9.532;2023-04-03T02:17:27;22.50;38.40
56268;DHT22;42175;46.930;9.532;2023-04-03T02:19:53;22.60;38.30
56268;DHT22;42175;46.930;9.532;2023-04-03T02:22:18;22.50;38.20
56268;DHT22;42175;46.930;9.532;2023-04-03T02:24:45;22.60;38.30
56268;DHT22;42175;46.930;9.532;2023-04-03T02:27:11;22.60;38.30
56268;DHT22;42175;46.930;9.532;2023-04-03T02:29:36;22.60;38.30
56268;DHT22;42175;46.930;9.532;2023-04-03T02:32:02;22.60;38.10
56268;DHT22;42175;46.930;9.532;2023-04-03T02:34:28;22.50;38.00
56268;DHT22;42175;46.930;9.532;2023-04-03T02:36:54;22.60;38.10
56268;DHT22;42175;46.930;9.532;2023-04-03T02:39:20;22.50;38.00
56268;DHT22;42175;46.930;9.532;2023-04-03T02:41:46;22.50;37.90
56268;DHT22;42175;46.930;9.532;2023-04-03T02:44:13;22.50;37.90
56268;DHT22;42175;46.930;9.532;2023-04-03T02:46:39;22.50;37.90
56268;DHT22;42175;46.930;9.532;2023-04-03T02:49:05;22.50;37.90
56268;DHT22;42175;46.930;9.532;2023-04-03T02:51:31;22.50;37.90
56268;DHT22;42175;46.930;9.532;2023-04-03T02:53:56;22.50;37.80
56268;DHT22;42175;46.930;9.532;2023-04-03T02:56:22;22.50;37.80
56268;DHT22;42175;46.930;9.532;2023-04-03T02:58:48;22.50;37.80
56268;DHT22;42175;46.930;9.532;2023-04-03T03:01:14;22.50;37.80
56268;DHT22;42175;46.930;9.532;2023-04-03T03:03:40;22.50;37.90
56268;DHT22;42175;46.930;9.532;2023-04-03T03:06:14;22.50;37.90
56268;DHT22;42175;46.930;9.532;2023-04-03T03:08:41;22.50;37.80
56268;DHT22;42175;46.930;9.532;2023-04-03T03:11:07;22.50;37.80
56268;DHT22;42175;46.930;9.532;2023-04-03T03:13:33;22.50;37.80
56268;DHT22;42175;46.930;9.532;2023-04-03T03:15:59;22.50;37.80
56268;DHT22;42175;46.930;9.532;2023-04-03T03:18:25;22.50;38.40
56268;DHT22;42175;46.930;9.532;2023-04-03T03:20:55;22.50;37.70
56268;DHT22;42175;46.930;9.532;2023-04-03T03:23:24;22.50;37.70
56268;DHT22;42175;46.930;9.532;2023-04-03T03:26:04;22.50;37.70
56268;DHT22;42175;46.930;9.532;2023-04-03T03:28:31;22.50;37.60
56268;DHT22;42175;46.930;9.532;2023-04-03T03:30:58;22.50;37.60
56268;DHT22;42175;46.930;9.532;2023-04-03T03:33:24;22.50;37.60
56268;DHT22;42175;46.930;9.532;2023-04-03T03:35:51;22.40;37.40
56268;DHT22;42175;46.930;9.532;2023-04-03T03:38:17;22.50;37.40
56268;DHT22;42175;46.930;9.532;2023-04-03T03:40:42;22.40;37.30
56268;DHT22;42175;46.930;9.532;2023-04-03T03:43:08;22.50;37.40
56268;DHT22;42175;46.930;9.532;2023-04-03T03:45:34;22.50;37.40
56268;DHT22;42175;46.930;9.532;2023-04-03T03:48:00;22.50;37.90
56268;DHT22;42175;46.930;9.532;2023-04-03T03:50:26;22.50;37.30
56268;DHT22;42175;46.930;9.532;2023-04-03T03:52:51;22.40;37.20
56268;DHT22;42175;46.930;9.532;2023-04-03T03:55:17;22.40;37.20
56268;DHT22;42175;46.930;9.532;2023-04-03T03:57:43;22.40;37.20
56268;DHT22;42175;46.930;9.532;2023-04-03T04:00:09;22.40;37.00
56268;DHT22;42175;46.930;9.532;2023-04-03T04:02:35;22.40;37.20
56268;DHT22;42175;46.930;9.532;2023-04-03T04:05:01;22.40;37.10
56268;DHT22;42175;46.930;9.532;2023-04-03T04:07:27;22.40;37.10
56268;DHT22;42175;46.930;9.532;2023-04-03T04:09:54;22.50;37.10
56268;DHT22;42175;46.930;9.532;2023-04-03T04:12:20;22.50;37.10
56268;DHT22;42175;46.930;9.532;2023-04-03T04:14:46;22.40;37.00
56268;DHT22;42175;46.930;9.532;2023-04-03T04:17:15;22.40;36.90
56268;DHT22;42175;46.930;9.532;2023-04-03T04:19:41;22.50;36.80
56268;DHT22;42175;46.930;9.532;2023-04-03T04:22:07;22.40;36.70
56268;DHT22;42175;46.930;9.532;2023-04-03T04:24:32;22.40;36.70
56268;DHT22;42175;46.930;9.532;2023-04-03T04:26:58;22.40;36.50
56268;DHT22;42175;46.930;9.532;2023-04-03T04:29:24;22.40;36.30
56268;DHT22;42175;46.930;9.532;2023-04-03T04:31:50;22.40;36.10
56268;DHT22;42175;46.930;9.532;2023-04-03T04:34:15;22.40;36.00
56268;DHT22;42175;46.930;9.532;2023-04-03T04:36:41;22.40;36.10
56268;DHT22;42175;46.930;9.532;2023-04-03T04:39:07;22.30;36.40
56268;DHT22;42175;46.930;9.532;2023-04-03T04:41:33;22.30;36.90
56268;DHT22;42175;46.930;9.532;2023-04-03T04:43:59;22.40;36.60
56268;DHT22;42175;46.930;9.532;2023-04-03T04:46:25;22.40;36.50
56268;DHT22;42175;46.930;9.532;2023-04-03T04:48:51;22.40;36.50
56268;DHT22;42175;46.930;9.532;2023-04-03T04:51:17;22.40;36.30
56268;DHT22;42175;46.930;9.532;2023-04-03T04:53:43;22.40;35.90
56268;DHT22;42175;46.930;9.532;2023-04-03T04:56:09;22.40;36.10
56268;DHT22;42175;46.930;9.532;2023-04-03T04:58:35;22.40;36.70
56268;DHT22;42175;46.930;9.532;2023-04-03T05:01:06;22.40;36.20
56268;DHT22;42175;46.930;9.532;2023-04-03T05:03:32;22.40;36.50
56268;DHT22;42175;46.930;9.532;2023-04-03T05:05:58;22.40;36.20
56268;DHT22;42175;46.930;9.532;2023-04-03T05:08:24;22.30;35.70
56268;DHT22;42175;46.930;9.532;2023-04-03T05:10:50;22.40;35.60
56268;DHT22;42175;46.930;9.532;2023-04-03T05:13:16;22.40;35.50
56268;DHT22;42175;46.930;9.532;2023-04-03T05:15:42;22.40;35.40
56268;DHT22;42175;46.930;9.532;2023-04-03T05:18:09;22.30;35.20
56268;DHT22;42175;46.930;9.532;2023-04-03T05:20:35;22.30;35.30
56268;DHT22;42175;46.930;9.532;2023-04-03T05:23:03;22.30;35.40
56268;DHT22;42175;46.930;9.532;2023-04-03T05:25:29;22.40;35.60
56268;DHT22;42175;46.930;9.532;2023-04-03T05:27:55;22.40;35.50
56268;DHT22;42175;46.930;9.532;2023-04-03T05:30:21;22.30;35.30
56268;DHT22;42175;46.930;9.532;2023-04-03T05:32:47;22.40;35.30
56268;DHT22;42175;46.930;9.532;2023-04-03T05:35:13;22.30;35.40
56268;DHT22;42175;46.930;9.532;2023-04-03T05:37:39;22.30;35.30
56268;DHT22;42175;46.930;9.532;2023-04-03T05:40:05;22.30;35.40
56268;DHT22;42175;46.930;9.532;2023-04-03T05:42:32;22.30;35.40
56268;DHT22;42175;46.930;9.532;2023-04-03T05:44:57;22.30;35.40
56268;DHT22;42175;46.930;9.532;2023-04-03T05:47:23;22.30;35.70
56268;DHT22;42175;46.930;9.532;2023-04-03T05:49:49;22.30;36.40
56268;DHT22;42175;46.930;9.532;2023-04-03T05:52:22;22.40;36.80
56268;DHT22;42175;46.930;9.532;2023-04-03T05:54:49;22.30;36.70
56268;DHT22;42175;46.930;9.532;2023-04-03T05:57:16;22.30;36.80
56268;DHT22;42175;46.930;9.532;2023-04-03T05:59:42;22.30;37.30
56268;DHT22;42175;46.930;9.532;2023-04-03T06:02:13;22.30;37.60
56268;DHT22;42175;46.930;9.532;2023-04-03T06:04:39;22.30;37.70
56268;DHT22;42175;46.930;9.532;2023-04-03T06:07:06;22.30;37.70
56268;DHT22;42175;46.930;9.532;2023-04-03T06:09:32;22.30;37.80
56268;DHT22;42175;46.930;9.532;2023-04-03T06:11:58;22.40;37.70
56268;DHT22;42175;46.930;9.532;2023-04-03T06:14:25;22.30;37.60
56268;DHT22;42175;46.930;9.532;2023-04-03T06:16:52;22.30;37.80
56268;DHT22;42175;46.930;9.532;2023-04-03T06:19:18;22.30;37.60
56268;DHT22;42175;46.930;9.532;2023-04-03T06:21:43;22.30;37.40
56268;DHT22;42175;46.930;9.532;2023-04-03T06:24:14;22.30;37.40
56268;DHT22;42175;46.930;9.532;2023-04-03T06:26:40;22.30;37.30
56268;DHT22;42175;46.930;9.532;2023-04-03T06:29:06;22.40;37.30
56268;DHT22;42175;46.930;9.532;2023-04-03T06:31:32;22.30;37.20
56268;DHT22;42175;46.930;9.532;2023-04-03T06:33:58;22.30;37.20
56268;DHT22;42175;46.930;9.532;2023-04-03T06:36:24;22.30;37.10
56268;DHT22;42175;46.930;9.532;2023-04-03T06:38:49;22.40;37.20
56268;DHT22;42175;46.930;9.532;2023-04-03T06:41:16;22.40;37.00
56268;DHT22;42175;46.930;9.532;2023-04-03T06:43:43;22.40;37.10
56268;DHT22;42175;46.930;9.532;2023-04-03T06:46:21;22.40;36.90
56268;DHT22;42175;46.930;9.532;2023-04-03T06:48:47;22.40;36.90
56268;DHT22;42175;46.930;9.532;2023-04-03T06:51:24;22.40;36.90
56268;DHT22;42175;46.930;9.532;2023-04-03T06:53:52;22.40;36.80
56268;DHT22;42175;46.930;9.532;2023-04-03T06:56:18;22.30;36.80
56268;DHT22;42175;46.930;9.532;2023-04-03T06:58:45;22.40;36.90
56268;DHT22;42175;46.930;9.532;2023-04-03T07:01:13;22.30;36.80
56268;DHT22;42175;46.930;9.532;2023-04-03T07:03:40;22.30;36.80
56268;DHT22;42175;46.930;9.532;2023-04-03T07:06:07;22.30;36.80
56268;DHT22;42175;46.930;9.532;2023-04-03T07:08:33;22.30;36.70
56268;DHT22;42175;46.930;9.532;2023-04-03T07:10:59;22.30;36.80
56268;DHT22;42175;46.930;9.532;2023-04-03T07:13:25;22.30;36.70
56268;DHT22;42175;46.930;9.532;2023-04-03T07:15:50;22.40;36.70
56268;DHT22;42175;46.930;9.532;2023-04-03T07:18:17;22.40;36.60
56268;DHT22;42175;46.930;9.532;2023-04-03T07:20:43;22.40;36.80
56268;DHT22;42175;46.930;9.532;2023-04-03T07:23:09;22.30;37.40
56268;DHT22;42175;46.930;9.532;2023-04-03T07:25:35;22.40;38.50
56268;DHT22;42175;46.930;9.532;2023-04-03T07:28:00;22.30;38.40
56268;DHT22;42175;46.930;9.532;2023-04-03T07:30:26;22.20;34.40
56268;DHT22;42175;46.930;9.532;2023-04-03T07:32:52;21.40;32.70
56268;DHT22;42175;46.930;9.532;2023-04-03T07:35:18;21.10;33.30
56268;DHT22;42175;46.930;9.532;2023-04-03T07:37:44;20.80;32.80
56268;DHT22;42175;46.930;9.532;2023-04-03T07:40:10;20.40;33.20
56268;DHT22;42175;46.930;9.532;2023-04-03T07:42:36;20.20;33.90
56268;DHT22;42175;46.930;9.532;2023-04-03T07:45:03;20.10;33.60
56268;DHT22;42175;46.930;9.532;2023-04-03T07:47:30;20.00;33.20
56268;DHT22;42175;46.930;9.532;2023-04-03T07:49:57;19.90;33.90
56268;DHT22;42175;46.930;9.532;2023-04-03T07:52:24;20.10;34.50
56268;DHT22;42175;46.930;9.532;2023-04-03T07:54:50;20.40;35.20
56268;DHT22;42175;46.930;9.532;2023-04-03T07:57:16;20.60;35.80
56268;DHT22;42175;46.930;9.532;2023-04-03T07:59:42;20.70;36.10
56268;DHT22;42175;46.930;9.532;2023-04-03T08:02:12;20.80;36.40
56268;DHT22;42175;46.930;9.532;2023-04-03T08:04:38;20.90;36.60
56268;DHT22;42175;46.930;9.532;2023-04-03T08:07:04;21.00;36.80
56268;DHT22;42175;46.930;9.532;2023-04-03T08:09:30;21.10;37.10
56268;DHT22;42175;46.930;9.532;2023-04-03T08:11:57;21.20;37.30
56268;DHT22;42175;46.930;9.532;2023-04-03T08:14:24;21.20;37.40
56268;DHT22;42175;46.930;9.532;2023-04-03T08:16:49;21.30;37.60
56268;DHT22;42175;46.930;9.532;2023-04-03T08:19:16;21.30;37.60
56268;DHT22;42175;46.930;9.532;2023-04-03T08:21:44;21.40;37.80
56268;DHT22;42175;46.930;9.532;2023-04-03T08:24:11;21.40;38.50
56268;DHT22;42175;46.930;9.532;2023-04-03T08:26:37;21.40;38.00
56268;DHT22;42175;46.930;9.532;2023-04-03T08:29:03;21.50;38.10
56268;DHT22;42175;46.930;9.532;2023-04-03T08:31:29;21.50;38.00
56268;DHT22;42175;46.930;9.532;2023-04-03T08:33:56;21.50;38.10
56268;DHT22;42175;46.930;9.532;2023-04-03T08:36:25;21.60;38.20
56268;DHT22;42175;46.930;9.532;2023-04-03T08:38:52;21.60;38.20
56268;DHT22;42175;46.930;9.532;2023-04-03T08:51:59;21.70;38.50
56268;DHT22;42175;46.930;9.532;2023-04-03T08:54:47;21.80;38.50
56268;DHT22;42175;46.930;9.532;2023-04-03T08:57:14;21.80;38.40
56268;DHT22;42175;46.930;9.532;2023-04-03T08:59:40;21.80;38.50
56268;DHT22;42175;46.930;9.532;2023-04-03T09:02:23;21.80;38.60
56268;DHT22;42175;46.930;9.532;2023-04-03T09:04:50;21.80;38.60
56268;DHT22;42175;46.930;9.532;2023-04-03T09:07:43;21.80;38.70
56268;DHT22;42175;46.930;9.532;2023-04-03T09:10:12;21.80;38.70
56268;DHT22;42175;46.930;9.532;2023-04-03T09:12:46;21.80;38.70
56268;DHT22;42175;46.930;9.532;2023-04-03T09:15:24;21.90;38.90
56268;DHT22;42175;46.930;9.532;2023-04-03T09:26:02;21.90;38.80
56268;DHT22;42175;46.930;9.532;2023-04-03T09:28:34;21.90;38.80
56268;DHT22;42175;46.930;9.532;2023-04-03T09:31:02;22.00;38.90
56268;DHT22;42175;46.930;9.532;2023-04-03T09:33:35;22.00;38.90
56268;DHT22;42175;46.930;9.532;2023-04-03T09:36:02;22.00;39.00
56268;DHT22;42175;46.930;9.532;2023-04-03T09:38:27;22.00;38.80
56268;DHT22;42175;46.930;9.532;2023-04-03T09:41:17;22.00;38.80
56268;DHT22;42175;46.930;9.532;2023-04-03T09:43:53;22.00;38.90
56268;DHT22;42175;46.930;9.532;2023-04-03T09:46:32;22.00;38.90
56268;DHT22;42175;46.930;9.532;2023-04-03T09:49:01;22.00;38.90
56268;DHT22;42175;46.930;9.532;2023-04-03T09:51:29;22.00;38.90
56268;DHT22;42175;46.930;9.532;2023-04-03T09:53:56;22.00;38.90
56268;DHT22;42175;46.930;9.532;2023-04-03T09:56:27;22.10;38.90
56268;DHT22;42175;46.930;9.532;2023-04-03T10:01:37;22.10;38.90
56268;DHT22;42175;46.930;9.532;2023-04-03T10:04:05;22.00;38.90
56268;DHT22;42175;46.930;9.532;2023-04-03T10:06:34;22.00;38.90
56268;DHT22;42175;46.930;9.532;2023-04-03T10:09:27;22.10;38.90
56268;DHT22;42175;46.930;9.532;2023-04-03T10:12:02;22.10;38.90
56268;DHT22;42175;46.930;9.532;2023-04-03T10:14:31;22.10;39.00
56268;DHT22;42175;46.930;9.532;2023-04-03T10:20:33;22.20;39.40
56268;DHT22;42175;46.930;9.532;2023-04-03T10:25:44;22.20;39.10
56268;DHT22;42175;46.930;9.532;2023-04-03T10:31:17;22.30;39.10
56268;DHT22;42175;46.930;9.532;2023-04-03T10:42:15;22.30;38.80
56268;DHT22;42175;46.930;9.532;2023-04-03T11:01:02;22.20;38.50
56268;DHT22;42175;46.930;9.532;2023-04-03T11:03:41;22.30;38.60
56268;DHT22;42175;46.930;9.532;2023-04-03T11:06:11;22.30;38.60
56268;DHT22;42175;46.930;9.532;2023-04-03T11:09:00;22.30;38.60
56268;DHT22;42175;46.930;9.532;2023-04-03T11:11:33;22.30;38.50
56268;DHT22;42175;46.930;9.532;2023-04-03T11:14:28;22.30;38.50
56268;DHT22;42175;46.930;9.532;2023-04-03T11:17:13;22.20;38.20
56268;DHT22;42175;46.930;9.532;2023-04-03T11:20:05;22.20;38.30
56268;DHT22;42175;46.930;9.532;2023-04-03T11:22:39;22.20;38.40
56268;DHT22;42175;46.930;9.532;2023-04-03T11:27:42;22.30;38.30
56268;DHT22;42175;46.930;9.532;2023-04-03T11:30:40;22.30;38.20
56268;DHT22;42175;46.930;9.532;2023-04-03T11:35:44;22.30;38.10
56268;DHT22;42175;46.930;9.532;2023-04-03T11:38:19;22.30;38.10
56268;DHT22;42175;46.930;9.532;2023-04-03T11:40:47;22.30;38.10
56268;DHT22;42175;46.930;9.532;2023-04-03T11:43:32;22.30;37.90
56268;DHT22;42175;46.930;9.532;2023-04-03T11:46:04;22.30;37.90
56268;DHT22;42175;46.930;9.532;2023-04-03T11:50:59;22.30;38.00
56268;DHT22;42175;46.930;9.532;2023-04-03T11:53:36;22.20;37.90
56268;DHT22;42175;46.930;9.532;2023-04-03T12:01:49;22.30;37.90
56268;DHT22;42175;46.930;9.532;2023-04-03T12:04:17;22.30;37.90
56268;DHT22;42175;46.930;9.532;2023-04-03T12:09:54;22.30;37.90
56268;DHT22;42175;46.930;9.532;2023-04-03T12:12:35;22.20;37.80
56268;DHT22;42175;46.930;9.532;2023-04-03T12:15:25;22.30;37.80
56268;DHT22;42175;46.930;9.532;2023-04-03T12:17:51;22.30;37.80
56268;DHT22;42175;46.930;9.532;2023-04-03T12:23:33;22.30;37.70
56268;DHT22;42175;46.930;9.532;2023-04-03T12:28:45;22.30;37.70
56268;DHT22;42175;46.930;9.532;2023-04-03T12:31:12;22.30;37.50
56268;DHT22;42175;46.930;9.532;2023-04-03T12:39:36;22.30;37.60
56268;DHT22;42175;46.930;9.532;2023-04-03T12:42:37;22.30;37.70
56268;DHT22;42175;46.930;9.532;2023-04-03T12:45:24;22.30;37.60
56268;DHT22;42175;46.930;9.532;2023-04-03T12:47:55;22.30;37.60
56268;DHT22;42175;46.930;9.532;2023-04-03T12:50:28;22.30;37.40
56268;DHT22;42175;46.930;9.532;2023-04-03T12:53:05;22.30;37.30
56268;DHT22;42175;46.930;9.532;2023-04-03T12:55:32;22.30;37.30
56268;DHT22;42175;46.930;9.532;2023-04-03T12:58:23;22.30;37.40
56268;DHT22;42175;46.930;9.532;2023-04-03T13:01:11;22.30;37.30
56268;DHT22;42175;46.930;9.532;2023-04-03T13:03:40;22.40;37.30
56268;DHT22;42175;46.930;9.532;2023-04-03T13:06:21;22.40;37.30
56268;DHT22;42175;46.930;9.532;2023-04-03T13:08:56;22.40;37.20
56268;DHT22;42175;46.930;9.532;2023-04-03T13:11:24;22.40;37.10
56268;DHT22;42175;46.930;9.532;2023-04-03T13:13:55;22.40;37.00
56268;DHT22;42175;46.930;9.532;2023-04-03T13:16:22;22.30;36.80
56268;DHT22;42175;46.930;9.532;2023-04-03T13:18:53;22.30;36.50
56268;DHT22;42175;46.930;9.532;2023-04-03T13:21:22;22.30;36.40
56268;DHT22;42175;46.930;9.532;2023-04-03T13:23:52;22.40;36.40
56268;DHT22;42175;46.930;9.532;2023-04-03T13:26:20;22.30;36.10
56268;DHT22;42175;46.930;9.532;2023-04-03T13:28:47;22.30;36.10
56268;DHT22;42175;46.930;9.532;2023-04-03T13:36:36;22.30;35.90
56268;DHT22;42175;46.930;9.532;2023-04-03T13:41:37;22.30;35.80
56268;DHT22;42175;46.930;9.532;2023-04-03T13:46:56;22.40;35.90
56268;DHT22;42175;46.930;9.532;2023-04-03T13:49:33;22.30;35.80
56268;DHT22;42175;46.930;9.532;2023-04-03T13:51:59;22.30;36.00
56268;DHT22;42175;46.930;9.532;2023-04-03T13:54:35;22.30;35.80
56268;DHT22;42175;46.930;9.532;2023-04-03T13:57:02;22.30;35.40
56268;DHT22;42175;46.930;9.532;2023-04-03T13:59:30;22.30;35.40
56268;DHT22;42175;46.930;9.532;2023-04-03T14:04:31;22.30;35.40
56268;DHT22;42175;46.930;9.532;2023-04-03T14:06:58;22.30;35.60
56268;DHT22;42175;46.930;9.532;2023-04-03T14:09:25;22.30;35.50
56268;DHT22;42175;46.930;9.532;2023-04-03T14:12:02;22.30;35.30
56268;DHT22;42175;46.930;9.532;2023-04-03T14:14:34;22.30;35.40
56268;DHT22;42175;46.930;9.532;2023-04-03T14:17:03;22.40;35.70
56268;DHT22;42175;46.930;9.532;2023-04-03T14:19:35;22.40;35.60
56268;DHT22;42175;46.930;9.532;2023-04-03T14:22:15;22.40;36.20
56268;DHT22;42175;46.930;9.532;2023-04-03T14:24:41;22.40;35.40
56268;DHT22;42175;46.930;9.532;2023-04-03T14:27:16;22.30;35.30
56268;DHT22;42175;46.930;9.532;2023-04-03T14:29:43;22.30;35.10
56268;DHT22;42175;46.930;9.532;2023-04-03T14:32:14;22.30;35.00
56268;DHT22;42175;46.930;9.532;2023-04-03T14:34:41;22.30;34.80
56268;DHT22;42175;46.930;9.532;2023-04-03T14:37:16;22.30;34.90
56268;DHT22;42175;46.930;9.532;2023-04-03T14:39:43;22.40;35.10
56268;DHT22;42175;46.930;9.532;2023-04-03T14:42:13;22.40;35.30
56268;DHT22;42175;46.930;9.532;2023-04-03T14:44:39;22.40;35.60
56268;DHT22;42175;46.930;9.532;2023-04-03T14:47:12;22.40;35.60
56268;DHT22;42175;46.930;9.532;2023-04-03T14:49:39;22.40;35.80
56268;DHT22;42175;46.930;9.532;2023-04-03T14:52:06;22.40;35.80
56268;DHT22;42175;46.930;9.532;2023-04-03T14:54:32;22.40;35.70
56268;DHT22;42175;46.930;9.532;2023-04-03T14:56:59;22.40;35.80
56268;DHT22;42175;46.930;9.532;2023-04-03T14:59:26;22.40;36.60
56268;DHT22;42175;46.930;9.532;2023-04-03T15:01:52;22.40;35.90
56268;DHT22;42175;46.930;9.532;2023-04-03T15:04:20;22.40;35.70
56268;DHT22;42175;46.930;9.532;2023-04-03T15:06:47;22.40;36.00
56268;DHT22;42175;46.930;9.532;2023-04-03T15:09:26;22.40;36.00
56268;DHT22;42175;46.930;9.532;2023-04-03T15:11:54;22.40;36.80
56268;DHT22;42175;46.930;9.532;2023-04-03T15:14:21;22.40;36.20
56268;DHT22;42175;46.930;9.532;2023-04-03T15:16:47;22.40;36.30
56268;DHT22;42175;46.930;9.532;2023-04-03T15:19:13;22.40;36.30
56268;DHT22;42175;46.930;9.532;2023-04-03T15:21:40;22.40;36.30
56268;DHT22;42175;46.930;9.532;2023-04-03T15:24:05;22.40;36.40
56268;DHT22;42175;46.930;9.532;2023-04-03T15:26:32;22.40;36.10
56268;DHT22;42175;46.930;9.532;2023-04-03T15:28:58;22.40;36.10
56268;DHT22;42175;46.930;9.532;2023-04-03T15:31:24;22.40;36.30
56268;DHT22;42175;46.930;9.532;2023-04-03T15:33:50;22.40;36.30
56268;DHT22;42175;46.930;9.532;2023-04-03T15:36:15;22.40;36.10
56268;DHT22;42175;46.930;9.532;2023-04-03T15:38:41;22.40;36.00
56268;DHT22;42175;46.930;9.532;2023-04-03T15:41:07;22.40;36.10
56268;DHT22;42175;46.930;9.532;2023-04-03T15:43:32;22.40;35.90
56268;DHT22;42175;46.930;9.532;2023-04-03T15:46:01;22.30;35.50
56268;DHT22;42175;46.930;9.532;2023-04-03T15:48:29;22.40;35.50
56268;DHT22;42175;46.930;9.532;2023-04-03T15:50:55;22.40;35.60
56268;DHT22;42175;46.930;9.532;2023-04-03T15:53:20;22.40;35.40
56268;DHT22;42175;46.930;9.532;2023-04-03T15:55:46;22.40;35.50
56268;DHT22;42175;46.930;9.532;2023-04-03T15:58:11;22.40;35.30
56268;DHT22;42175;46.930;9.532;2023-04-03T16:00:37;22.40;35.00
56268;DHT22;42175;46.930;9.532;2023-04-03T16:03:12;22.40;34.90
56268;DHT22;42175;46.930;9.532;2023-04-03T16:05:40;22.40;35.10
56268;DHT22;42175;46.930;9.532;2023-04-03T16:08:07;22.40;35.10
56268;DHT22;42175;46.930;9.532;2023-04-03T16:10:36;22.40;35.40
56268;DHT22;42175;46.930;9.532;2023-04-03T16:13:03;22.40;35.50
56268;DHT22;42175;46.930;9.532;2023-04-03T16:15:30;22.40;35.70
56268;DHT22;42175;46.930;9.532;2023-04-03T16:17:57;22.40;35.90
56268;DHT22;42175;46.930;9.532;2023-04-03T16:20:24;22.40;36.10
56268;DHT22;42175;46.930;9.532;2023-04-03T16:22:50;22.40;36.40
56268;DHT22;42175;46.930;9.532;2023-04-03T16:25:17;22.40;36.40
56268;DHT22;42175;46.930;9.532;2023-04-03T16:27:42;22.60;36.60
56268;DHT22;42175;46.930;9.532;2023-04-03T16:30:08;22.50;36.70
56268;DHT22;42175;46.930;9.532;2023-04-03T16:32:35;22.60;36.80
56268;DHT22;42175;46.930;9.532;2023-04-03T16:35:02;22.60;36.90
56268;DHT22;42175;46.930;9.532;2023-04-03T16:37:28;22.60;37.00
56268;DHT22;42175;46.930;9.532;2023-04-03T16:39:54;22.70;37.20
56268;DHT22;42175;46.930;9.532;2023-04-03T16:42:19;22.60;36.90
56268;DHT22;42175;46.930;9.532;2023-04-03T16:44:45;22.60;36.80
56268;DHT22;42175;46.930;9.532;2023-04-03T16:47:11;22.50;32.30
56268;DHT22;42175;46.930;9.532;2023-04-03T16:49:39;22.00;30.80
56268;DHT22;42175;46.930;9.532;2023-04-03T16:52:04;22.00;32.70
56268;DHT22;42175;46.930;9.532;2023-04-03T16:54:31;22.10;34.30
56268;DHT22;42175;46.930;9.532;2023-04-03T16:56:57;22.20;34.90
56268;DHT22;42175;46.930;9.532;2023-04-03T16:59:23;22.20;35.00
56268;DHT22;42175;46.930;9.532;2023-04-03T17:01:49;22.30;35.30
56268;DHT22;42175;46.930;9.532;2023-04-03T17:04:15;22.40;35.70
56268;DHT22;42175;46.930;9.532;2023-04-03T17:06:41;22.40;35.50
56268;DHT22;42175;46.930;9.532;2023-04-03T17:09:07;22.40;35.30
56268;DHT22;42175;46.930;9.532;2023-04-03T17:11:35;22.40;35.10
56268;DHT22;42175;46.930;9.532;2023-04-03T17:14:00;22.40;34.90
56268;DHT22;42175;46.930;9.532;2023-04-03T17:16:27;22.40;34.90
56268;DHT22;42175;46.930;9.532;2023-04-03T17:18:53;22.40;34.90
56268;DHT22;42175;46.930;9.532;2023-04-03T17:21:20;22.40;35.00
56268;DHT22;42175;46.930;9.532;2023-04-03T17:23:49;22.40;35.30
56268;DHT22;42175;46.930;9.532;2023-04-03T17:26:16;22.40;35.30